createdAt,value
2022-10-15T00:01:26.310Z,74.70
2022-10-15T00:03:53.263Z,74.50
2022-10-15T00:06:24.001Z,74.50
2022-10-15T00:08:53.235Z,74.30
2022-10-15T00:11:23.136Z,74.70
2022-10-15T00:13:54.203Z,75.10
2022-10-15T00:16:23.356Z,75.80
2022-10-15T00:18:51.718Z,75.80
2022-10-15T00:21:22.983Z,76.60
2022-10-15T00:23:50.142Z,77.10
2022-10-15T00:26:21.797Z,77.50
2022-10-15T00:28:54.057Z,77.70
2022-10-15T00:31:24.586Z,77.80
2022-10-15T00:33:52.603Z,78.20
2022-10-15T00:36:24.913Z,78.30
2022-10-15T00:38:52.606Z,78.70
2022-10-15T00:41:34.630Z,79.00
2022-10-15T00:44:21.001Z,79.00
2022-10-15T00:47:29.493Z,79.40
2022-10-15T00:50:03.583Z,79.50
2022-10-15T00:52:37.655Z,79.80
2022-10-15T00:55:29.489Z,80.00
2022-10-15T00:58:03.377Z,80.10
2022-10-15T01:00:30.501Z,80.30
2022-10-15T01:02:59.917Z,80.70
2022-10-15T01:05:27.091Z,80.90
2022-10-15T01:07:53.835Z,80.90
2022-10-15T01:10:21.866Z,81.40
2022-10-15T01:13:19.013Z,82.00
2022-10-15T01:16:01.277Z,82.20
2022-10-15T01:18:36.597Z,82.70
2022-10-15T01:21:33.099Z,82.90
2022-10-15T01:24:38.441Z,83.60
2022-10-15T01:27:17.660Z,84.50
2022-10-15T01:30:03.246Z,84.10
2022-10-15T01:32:35.844Z,84.30
2022-10-15T01:35:13.980Z,84.50
2022-10-15T01:37:59.793Z,84.80
2022-10-15T01:40:58.312Z,85.00
2022-10-15T01:43:42.634Z,85.00
2022-10-15T01:46:21.912Z,85.30
2022-10-15T01:48:52.948Z,85.30
2022-10-15T01:51:27.130Z,85.20
2022-10-15T01:53:54.578Z,85.40
2022-10-15T01:56:23.935Z,85.50
2022-10-15T01:58:54.418Z,85.70
2022-10-15T02:01:24.390Z,85.60
2022-10-15T02:03:53.405Z,85.60
2022-10-15T02:06:37.058Z,85.60
2022-10-15T02:09:43.243Z,85.70
2022-10-15T02:12:38.627Z,85.70
2022-10-15T02:15:11.139Z,85.80
2022-10-15T02:17:48.342Z,85.70
2022-10-15T02:20:23.658Z,85.90
2022-10-15T02:23:02.318Z,85.60
2022-10-15T02:25:35.218Z,85.80
2022-10-15T02:28:05.593Z,86.00
2022-10-15T02:30:36.024Z,86.00
2022-10-15T02:33:05.320Z,86.00
2022-10-15T02:35:33.844Z,86.00
2022-10-15T02:38:07.187Z,86.10
2022-10-15T02:40:36.005Z,86.10
2022-10-15T02:43:06.767Z,86.70
2022-10-15T02:45:33.880Z,86.00
2022-10-15T02:48:03.633Z,86.00
2022-10-15T02:50:30.442Z,86.00
2022-10-15T02:52:57.220Z,86.10
2022-10-15T02:55:26.563Z,86.10
2022-10-15T02:57:53.389Z,86.10
2022-10-15T03:00:20.314Z,86.10
2022-10-15T03:02:49.728Z,86.00
2022-10-15T03:05:16.927Z,86.00
2022-10-15T03:07:43.918Z,86.10
2022-10-15T03:10:10.784Z,86.30
2022-10-15T03:12:37.542Z,86.20
2022-10-15T03:15:07.084Z,86.20
2022-10-15T03:17:34.160Z,86.10
2022-10-15T03:20:00.913Z,86.10
2022-10-15T03:22:27.697Z,86.20
2022-10-15T03:24:57.191Z,86.10
2022-10-15T03:27:24.428Z,86.10
2022-10-15T03:29:51.532Z,86.00
2022-10-15T03:32:18.396Z,86.60
2022-10-15T03:34:45.139Z,87.10
2022-10-15T03:37:11.919Z,87.70
2022-10-15T03:39:38.901Z,88.10
2022-10-15T03:42:08.120Z,88.40
2022-10-15T03:44:36.958Z,88.70
2022-10-15T03:47:03.815Z,89.50
2022-10-15T03:49:32.807Z,90.00
2022-10-15T03:51:59.829Z,90.20
2022-10-15T03:54:26.679Z,90.20
2022-10-15T03:56:53.453Z,90.40
2022-10-15T03:59:20.306Z,90.40
2022-10-15T04:01:51.898Z,90.50
2022-10-15T04:04:18.650Z,90.70
2022-10-15T04:06:48.565Z,90.60
2022-10-15T04:09:15.600Z,90.70
2022-10-15T04:11:42.422Z,90.60
2022-10-15T04:14:09.392Z,90.50
2022-10-15T04:16:36.278Z,90.50
2022-10-15T04:19:05.091Z,90.40
2022-10-15T04:21:34.265Z,90.40
2022-10-15T04:24:01.180Z,90.30
2022-10-15T04:26:28.503Z,90.30
2022-10-15T04:29:00.022Z,90.30
2022-10-15T04:31:29.362Z,90.30
2022-10-15T04:33:58.596Z,90.30
2022-10-15T04:36:25.365Z,90.20
2022-10-15T04:38:53.425Z,90.20
2022-10-15T04:41:22.328Z,90.20
2022-10-15T04:43:49.099Z,90.20
2022-10-15T04:46:15.896Z,90.10
2022-10-15T04:48:47.681Z,90.10
2022-10-15T04:51:21.173Z,90.00
2022-10-15T04:53:47.967Z,90.00
2022-10-15T04:56:17.913Z,90.10
2022-10-15T04:58:47.416Z,89.60
2022-10-15T05:01:16.996Z,89.40
2022-10-15T05:03:45.631Z,89.40
2022-10-15T05:06:21.655Z,89.20
2022-10-15T05:08:49.442Z,88.90
2022-10-15T05:11:22.838Z,88.70
2022-10-15T05:13:50.078Z,88.70
2022-10-15T05:16:25.846Z,88.80
2022-10-15T05:18:59.099Z,88.90
2022-10-15T05:21:26.220Z,88.90
2022-10-15T05:23:57.638Z,88.70
2022-10-15T05:26:26.839Z,88.70
2022-10-15T05:28:53.963Z,89.00
2022-10-15T05:31:22.653Z,89.10
2022-10-15T05:33:53.335Z,89.00
2022-10-15T05:36:23.849Z,88.90
2022-10-15T05:38:58.301Z,88.50
2022-10-15T05:41:26.335Z,88.40
2022-10-15T05:43:57.721Z,88.30
2022-10-15T05:46:25.300Z,88.10
2022-10-15T05:48:54.678Z,88.10
2022-10-15T05:51:22.063Z,88.20
2022-10-15T05:53:52.647Z,88.20
2022-10-15T05:56:19.575Z,88.00
2022-10-15T05:58:48.855Z,87.90
2022-10-15T06:01:15.746Z,87.70
2022-10-15T06:03:43.323Z,87.50
2022-10-15T06:06:26.857Z,87.20
2022-10-15T06:08:54.321Z,86.70
2022-10-15T06:11:21.694Z,86.50
2022-10-15T06:13:48.587Z,86.50
2022-10-15T06:16:22.559Z,86.50
2022-10-15T06:18:53.448Z,86.40
2022-10-15T06:21:20.688Z,85.70
2022-10-15T06:23:47.424Z,85.70
2022-10-15T06:26:14.387Z,85.90
2022-10-15T06:28:41.313Z,85.60
2022-10-15T06:31:08.413Z,85.70
2022-10-15T06:33:35.939Z,85.30
2022-10-15T06:36:04.915Z,85.30
2022-10-15T06:38:32.436Z,85.20
2022-10-15T06:41:08.155Z,85.20
2022-10-15T06:43:35.823Z,85.30
2022-10-15T06:46:06.423Z,85.50
2022-10-15T06:48:35.896Z,86.20
2022-10-15T06:51:03.705Z,85.80
2022-10-15T06:53:31.591Z,86.10
2022-10-15T06:56:02.904Z,86.20
2022-10-15T06:58:30.035Z,86.70
2022-10-15T07:01:07.112Z,87.50
2022-10-15T07:03:39.347Z,88.00
2022-10-15T07:06:09.703Z,88.60
2022-10-15T07:08:37.077Z,89.30
2022-10-15T07:11:06.130Z,90.00
2022-10-15T07:13:33.063Z,89.90
2022-10-15T07:16:04.673Z,87.90
2022-10-15T07:18:34.321Z,86.00
2022-10-15T07:21:02.175Z,84.40
2022-10-15T07:23:31.640Z,83.40
2022-10-15T07:26:04.097Z,82.90
2022-10-15T07:28:31.208Z,82.30
2022-10-15T07:31:08.549Z,81.60
2022-10-15T07:33:35.859Z,80.60
2022-10-15T07:36:08.065Z,79.20
2022-10-15T07:38:35.785Z,78.70
2022-10-15T07:41:04.179Z,78.30
2022-10-15T07:43:31.080Z,78.10
2022-10-15T07:46:00.565Z,78.80
2022-10-15T07:48:27.556Z,78.70
2022-10-15T07:51:02.504Z,79.00
2022-10-15T07:53:29.790Z,79.20
2022-10-15T07:56:08.812Z,79.50
2022-10-15T07:58:39.355Z,79.80
2022-10-15T08:01:08.456Z,80.20
2022-10-15T08:03:38.137Z,80.30
2022-10-15T08:06:08.878Z,80.80
2022-10-15T08:08:38.894Z,81.10
2022-10-15T08:11:15.019Z,81.30
2022-10-15T08:13:44.311Z,81.60
2022-10-15T08:16:13.160Z,81.70
2022-10-15T08:18:43.269Z,81.40
2022-10-15T08:21:12.846Z,81.60
2022-10-15T08:23:39.883Z,80.40
2022-10-15T08:26:09.723Z,79.70
2022-10-15T08:28:39.527Z,78.50
2022-10-15T08:31:06.588Z,78.00
2022-10-15T08:33:38.424Z,77.00
2022-10-15T08:36:06.817Z,76.30
2022-10-15T08:38:35.970Z,75.40
2022-10-15T08:41:05.619Z,74.60
2022-10-15T08:43:38.557Z,73.60
2022-10-15T08:48:53.382Z,71.00
2022-10-15T08:51:22.867Z,70.50
2022-10-15T08:54:02.428Z,70.80
2022-10-15T08:56:39.374Z,70.70
2022-10-15T08:59:21.658Z,70.70
2022-10-15T09:01:59.151Z,71.30
2022-10-15T09:04:55.316Z,71.80
2022-10-15T09:07:42.884Z,71.90
2022-10-15T09:10:27.698Z,70.60
2022-10-15T09:13:16.750Z,69.10
2022-10-15T09:16:01.670Z,67.50
2022-10-15T09:18:34.369Z,65.60
2022-10-15T09:21:04.438Z,64.20
2022-10-15T09:23:35.421Z,62.70
2022-10-15T09:26:12.103Z,61.60
2022-10-15T09:29:11.199Z,60.70
2022-10-15T09:32:27.467Z,59.90
2022-10-15T09:35:29.428Z,59.80
2022-10-15T09:38:29.793Z,58.70
2022-10-15T09:41:16.705Z,57.90
2022-10-15T09:43:50.154Z,55.60
2022-10-15T09:46:19.598Z,56.20
2022-10-15T09:49:02.135Z,55.30
2022-10-15T09:51:34.996Z,55.20
2022-10-15T09:54:46.488Z,55.10
2022-10-15T09:57:17.549Z,55.20
2022-10-15T10:00:01.424Z,55.20
2022-10-15T10:02:29.874Z,54.30
2022-10-15T10:05:00.074Z,54.60
2022-10-15T10:07:38.026Z,54.80
2022-10-15T10:10:21.434Z,55.60
2022-10-15T10:12:48.455Z,55.20
2022-10-15T10:15:36.819Z,55.00
2022-10-15T10:18:06.918Z,55.10
2022-10-15T10:20:36.012Z,55.20
2022-10-15T10:23:24.771Z,55.10
2022-10-15T10:25:52.135Z,54.60
2022-10-15T10:28:31.658Z,55.10
2022-10-15T10:30:58.501Z,55.00
2022-10-15T10:33:31.364Z,54.90
2022-10-15T10:36:02.041Z,54.30
2022-10-15T10:38:35.948Z,53.70
2022-10-15T10:41:11.705Z,53.20
2022-10-15T10:43:54.223Z,51.90
2022-10-15T10:46:24.582Z,51.40
2022-10-15T10:48:54.783Z,51.10
2022-10-15T10:51:23.238Z,50.80
2022-10-15T10:54:03.434Z,49.50
2022-10-15T10:56:42.524Z,49.20
2022-10-15T10:59:25.485Z,47.80
2022-10-15T11:01:52.848Z,48.50
2022-10-15T11:04:30.576Z,49.30
2022-10-15T11:07:27.672Z,49.40
2022-10-15T11:10:14.192Z,49.70
2022-10-15T11:12:46.363Z,49.70
2022-10-15T11:15:24.053Z,50.00
2022-10-15T11:17:59.996Z,50.60
2022-10-15T11:20:58.733Z,50.50
2022-10-15T11:23:59.258Z,48.70
2022-10-15T11:27:09.597Z,48.70
2022-10-15T11:29:42.284Z,48.30
2022-10-15T11:32:17.217Z,46.90
2022-10-15T11:35:03.522Z,47.60
2022-10-15T11:37:48.895Z,47.40
2022-10-15T11:40:42.034Z,47.20
2022-10-15T11:43:29.271Z,46.50
2022-10-15T11:46:06.956Z,46.30
2022-10-15T11:48:49.670Z,46.90
2022-10-15T11:51:35.333Z,47.60
2022-10-15T11:54:40.628Z,47.70
2022-10-15T11:57:12.560Z,47.80
2022-10-15T11:59:47.765Z,48.30
2022-10-15T12:02:38.576Z,47.30
2022-10-15T12:05:09.274Z,47.50
2022-10-15T12:07:46.662Z,48.60
2022-10-15T12:10:13.562Z,49.20
2022-10-15T12:12:46.338Z,49.40
2022-10-15T12:15:25.506Z,49.10
2022-10-15T12:18:03.848Z,49.70
2022-10-15T12:20:31.212Z,49.80
2022-10-15T12:23:02.582Z,49.50
2022-10-15T12:25:42.148Z,48.70
2022-10-15T12:28:33.361Z,48.10
2022-10-15T12:31:04.059Z,47.20
2022-10-15T12:33:44.681Z,46.50
2022-10-15T12:36:30.271Z,43.80
2022-10-15T12:39:27.962Z,44.40
2022-10-15T12:42:25.884Z,45.50
2022-10-15T12:44:58.748Z,46.40
2022-10-15T12:47:55.391Z,46.90
2022-10-15T12:50:30.026Z,46.80
2022-10-15T12:53:02.920Z,46.50
2022-10-15T12:55:33.738Z,43.90
2022-10-15T12:58:02.288Z,43.70
2022-10-15T13:00:36.731Z,44.00
2022-10-15T13:03:29.875Z,44.00
2022-10-15T13:06:14.170Z,43.20
2022-10-15T13:08:46.504Z,45.00
2022-10-15T13:11:22.550Z,45.50
2022-10-15T13:13:54.432Z,46.10
2022-10-15T13:16:25.433Z,47.90
2022-10-15T13:18:57.174Z,48.80
2022-10-15T13:21:49.744Z,48.80
2022-10-15T13:24:21.382Z,48.90
2022-10-15T13:26:51.109Z,48.70
2022-10-15T13:29:28.914Z,48.80
2022-10-15T13:31:57.634Z,49.80
2022-10-15T13:34:32.079Z,49.40
2022-10-15T13:37:01.885Z,48.90
2022-10-15T13:39:35.056Z,49.80
2022-10-15T13:42:23.014Z,49.80
2022-10-15T13:45:17.918Z,50.50
2022-10-15T13:47:52.755Z,50.00
2022-10-15T13:50:28.992Z,49.90
2022-10-15T13:53:03.171Z,50.40
2022-10-15T13:55:36.420Z,51.00
2022-10-15T13:58:23.561Z,50.40
2022-10-15T14:01:05.636Z,49.80
2022-10-15T14:03:35.884Z,49.50
2022-10-15T14:06:23.641Z,49.20
2022-10-15T14:08:53.128Z,49.30
2022-10-15T14:11:20.800Z,50.00
2022-10-15T14:13:58.952Z,49.80
2022-10-15T14:16:40.207Z,49.70
2022-10-15T14:19:07.291Z,48.60
2022-10-15T14:21:38.697Z,47.90
2022-10-15T14:24:31.509Z,49.10
2022-10-15T14:27:05.815Z,50.30
2022-10-15T14:29:57.902Z,51.60
2022-10-15T14:32:27.392Z,53.10
2022-10-15T14:35:04.114Z,53.30
2022-10-15T14:37:36.188Z,53.40
2022-10-15T14:40:11.942Z,53.80
2022-10-15T14:42:44.725Z,53.90
2022-10-15T14:45:14.547Z,54.50
2022-10-15T14:47:44.386Z,54.70
2022-10-15T14:50:17.287Z,54.40
2022-10-15T14:52:50.454Z,52.60
2022-10-15T14:55:19.720Z,53.10
2022-10-15T14:57:49.057Z,52.80
2022-10-15T15:00:26.756Z,53.40
2022-10-15T15:02:59.332Z,53.70
2022-10-15T15:05:30.325Z,55.00
2022-10-15T15:08:00.916Z,55.80
2022-10-15T15:10:31.086Z,56.50
2022-10-15T15:12:58.069Z,56.90
2022-10-15T15:15:27.540Z,57.40
2022-10-15T15:17:54.453Z,57.90
2022-10-15T15:20:22.346Z,58.60
2022-10-15T15:22:51.627Z,58.90
2022-10-15T15:25:30.811Z,59.10
2022-10-15T15:27:58.167Z,59.00
2022-10-15T15:30:30.326Z,59.50
2022-10-15T15:32:57.924Z,60.10
2022-10-15T15:35:42.021Z,60.80
2022-10-15T15:38:08.919Z,61.70
2022-10-15T15:40:36.352Z,62.30
2022-10-15T15:43:03.605Z,63.30
2022-10-15T15:45:33.451Z,64.10
2022-10-15T15:48:03.565Z,65.20
2022-10-15T15:50:38.184Z,66.10
2022-10-15T15:53:05.475Z,67.20
2022-10-15T15:55:32.365Z,68.00
2022-10-15T15:57:59.278Z,68.90
2022-10-15T16:00:28.323Z,70.20
2022-10-15T16:02:59.874Z,70.90
2022-10-15T16:05:26.792Z,71.80
2022-10-15T16:07:53.622Z,72.60
2022-10-15T16:10:20.378Z,73.80
2022-10-15T16:12:47.523Z,74.40
2022-10-15T16:15:15.274Z,75.70
2022-10-15T16:17:43.603Z,76.40
2022-10-15T16:20:11.160Z,77.20
2022-10-15T16:22:38.153Z,78.10
2022-10-15T16:25:05.584Z,79.10
2022-10-15T16:27:37.237Z,80.30
2022-10-15T16:30:04.908Z,80.90
2022-10-15T16:32:31.716Z,81.80
2022-10-15T16:34:58.515Z,82.40
2022-10-15T16:37:27.736Z,83.30
2022-10-15T16:39:55.033Z,84.90
2022-10-15T16:42:24.168Z,85.70
2022-10-15T16:44:52.691Z,86.40
2022-10-15T16:47:22.285Z,87.80
2022-10-15T16:49:51.916Z,88.10
2022-10-15T16:52:18.840Z,88.60
2022-10-15T16:54:45.637Z,89.40
2022-10-15T16:57:15.000Z,90.10
2022-10-15T16:59:41.807Z,90.70
2022-10-15T17:02:12.019Z,90.50
2022-10-15T17:04:38.952Z,90.60
2022-10-15T17:07:10.423Z,91.20
2022-10-15T17:09:40.220Z,91.30
2022-10-15T17:12:07.377Z,91.90
2022-10-15T17:14:36.504Z,92.20
2022-10-15T17:17:03.479Z,92.40
2022-10-15T17:19:33.316Z,92.70
2022-10-15T17:22:01.225Z,93.00
2022-10-15T17:24:28.158Z,93.20
2022-10-15T17:26:57.817Z,93.50
2022-10-15T17:29:27.864Z,93.80
2022-10-15T17:31:57.952Z,94.10
2022-10-15T17:34:25.890Z,94.40
2022-10-15T17:36:53.956Z,94.70
2022-10-15T17:39:22.561Z,94.80
2022-10-15T17:41:50.939Z,95.10
2022-10-15T17:44:20.545Z,95.30
2022-10-15T17:46:52.837Z,95.70
2022-10-15T17:49:19.996Z,95.90
2022-10-15T17:51:46.977Z,96.30
2022-10-15T17:54:14.136Z,96.40
2022-10-15T17:56:41.158Z,96.50
2022-10-15T17:59:12.889Z,96.80
2022-10-15T18:01:59.554Z,97.00
2022-10-15T18:04:28.531Z,97.10
2022-10-15T18:06:55.592Z,97.30
2022-10-15T18:09:25.047Z,97.70
2022-10-15T18:11:52.335Z,97.70
2022-10-15T18:16:48.609Z,97.60
2022-10-15T18:19:15.571Z,97.70
2022-10-15T18:21:46.962Z,98.00
2022-10-15T18:24:21.124Z,97.90
2022-10-15T18:26:51.245Z,98.20
2022-10-15T18:29:25.225Z,98.20
2022-10-15T18:31:58.017Z,98.10
2022-10-15T18:34:27.685Z,98.20
2022-10-15T18:36:56.589Z,98.10
2022-10-15T18:39:23.608Z,98.00
2022-10-15T18:41:50.435Z,98.10
2022-10-15T18:44:21.488Z,98.10
2022-10-15T18:46:51.414Z,98.10
2022-10-15T18:49:19.733Z,98.10
2022-10-15T18:51:50.714Z,98.20
2022-10-15T18:54:18.331Z,98.40
2022-10-15T18:56:50.620Z,98.40
2022-10-15T18:59:20.618Z,98.00
2022-10-15T19:01:49.333Z,97.70
2022-10-15T19:04:17.853Z,97.70
2022-10-15T19:06:52.464Z,97.70
2022-10-15T19:09:26.449Z,97.80
2022-10-15T19:11:56.175Z,97.70
2022-10-15T19:14:28.014Z,97.60
2022-10-15T19:16:56.617Z,97.40
2022-10-15T19:19:25.633Z,97.40
2022-10-15T19:21:53.435Z,97.20
2022-10-15T19:24:21.716Z,97.00
2022-10-15T19:26:49.285Z,97.00
2022-10-15T19:29:16.504Z,97.50
2022-10-15T19:31:45.417Z,97.20
2022-10-15T19:34:13.391Z,97.30
2022-10-15T19:36:43.457Z,97.20
2022-10-15T19:39:19.141Z,96.90
2022-10-15T19:41:48.571Z,96.50
2022-10-15T19:44:19.392Z,95.50
2022-10-15T19:46:48.615Z,95.00
2022-10-15T19:49:15.587Z,94.40
2022-10-15T19:51:49.162Z,93.90
2022-10-15T19:54:16.734Z,93.10
2022-10-15T19:56:45.890Z,92.50
2022-10-15T19:59:12.819Z,91.90
2022-10-15T20:01:39.822Z,92.10
2022-10-15T20:04:07.398Z,91.40
2022-10-15T20:06:38.523Z,91.10
2022-10-15T20:09:07.133Z,90.70
2022-10-15T20:11:34.351Z,90.00
2022-10-15T20:14:01.867Z,89.70
2022-10-15T20:16:33.060Z,89.00
2022-10-15T20:19:03.258Z,87.90
2022-10-15T20:21:30.139Z,87.60
2022-10-15T20:23:57.378Z,87.10
2022-10-15T20:26:24.442Z,86.10
2022-10-15T20:28:51.383Z,85.90
2022-10-15T20:31:28.248Z,85.50
2022-10-15T20:33:55.069Z,84.70
2022-10-15T20:36:24.019Z,84.80
2022-10-15T20:38:53.555Z,84.50
2022-10-15T20:41:20.434Z,84.60
2022-10-15T20:43:51.767Z,84.80
2022-10-15T20:46:32.678Z,85.10
2022-10-15T20:49:09.178Z,85.70
2022-10-15T20:51:39.993Z,85.70
2022-10-15T20:54:09.434Z,86.40
2022-10-15T20:56:36.445Z,86.70
2022-10-15T20:59:05.158Z,87.10
2022-10-15T21:01:34.276Z,87.10
2022-10-15T21:04:01.941Z,87.00
2022-10-15T21:06:28.816Z,86.80
2022-10-15T21:08:56.445Z,86.80
2022-10-15T21:11:28.005Z,86.80
2022-10-15T21:13:57.001Z,86.80
2022-10-15T21:16:29.112Z,86.80
2022-10-15T21:18:56.355Z,86.80
2022-10-15T21:21:23.347Z,86.80
2022-10-15T21:23:50.187Z,86.60
2022-10-15T21:26:18.657Z,87.30
2022-10-15T21:28:49.743Z,87.70
2022-10-15T21:31:18.061Z,88.20
2022-10-15T21:33:47.992Z,88.70
2022-10-15T21:36:28.216Z,89.30
2022-10-15T21:39:03.674Z,89.70
2022-10-15T21:41:32.172Z,90.10
2022-10-15T21:44:00.565Z,90.30
2022-10-15T21:46:28.113Z,90.40
2022-10-15T21:48:57.675Z,90.80
2022-10-15T21:51:29.259Z,90.40
2022-10-15T21:53:57.727Z,90.30
2022-10-15T21:56:27.330Z,90.30
2022-10-15T21:58:54.690Z,90.30
2022-10-15T22:01:27.474Z,90.20
2022-10-15T22:03:59.592Z,90.00
2022-10-15T22:06:29.545Z,90.00
2022-10-15T22:08:56.449Z,90.00
2022-10-15T22:11:33.269Z,89.80
2022-10-15T22:14:06.718Z,89.80
2022-10-15T22:16:35.778Z,89.50
2022-10-15T22:19:03.287Z,89.10
2022-10-15T22:21:36.507Z,88.60
2022-10-15T22:24:09.611Z,89.30
2022-10-15T22:26:40.151Z,88.90
2022-10-15T22:29:09.218Z,88.80
2022-10-15T22:31:36.542Z,88.60
2022-10-15T22:34:03.403Z,88.50
2022-10-15T22:36:32.441Z,88.30
2022-10-15T22:39:02.153Z,88.40
2022-10-15T22:41:36.104Z,88.70
2022-10-15T22:44:03.592Z,89.00
2022-10-15T22:46:37.212Z,89.30
2022-10-15T22:49:06.592Z,89.50
2022-10-15T22:51:36.138Z,90.00
2022-10-15T22:54:06.174Z,90.20
2022-10-15T22:56:33.890Z,90.40
2022-10-15T22:59:00.895Z,90.70
2022-10-15T23:01:29.925Z,90.90
2022-10-15T23:03:59.411Z,91.20
2022-10-15T23:06:26.798Z,91.40
2022-10-15T23:08:55.729Z,91.60
2022-10-15T23:11:25.363Z,91.70
2022-10-15T23:13:56.126Z,91.80
2022-10-15T23:16:30.769Z,91.90
2022-10-15T23:19:03.235Z,92.10
2022-10-15T23:21:53.385Z,92.20
2022-10-15T23:24:23.075Z,92.40
2022-10-15T23:26:50.477Z,92.40
2022-10-15T23:29:20.208Z,92.40
2022-10-15T23:31:47.991Z,92.10
2022-10-15T23:34:17.623Z,91.90
2022-10-15T23:36:44.967Z,91.70
2022-10-15T23:39:18.016Z,91.30
2022-10-15T23:41:45.617Z,91.00
2022-10-15T23:44:14.897Z,90.80
2022-10-15T23:46:44.245Z,90.60
2022-10-15T23:49:14.147Z,90.30
2022-10-15T23:51:41.426Z,90.10
2022-10-15T23:54:15.486Z,90.00
2022-10-15T23:56:42.415Z,89.70
2022-10-15T23:59:11.839Z,89.50
